createdAt,value
2023-05-04T00:00:18.768Z,62.47
2023-05-04T00:01:18.736Z,62.37
2023-05-04T00:02:18.757Z,62.37
2023-05-04T00:03:18.833Z,62.57
2023-05-04T00:04:18.701Z,62.47
2023-05-04T00:05:18.721Z,62.26
2023-05-04T00:06:18.680Z,62.26
2023-05-04T00:07:18.677Z,62.16
2023-05-04T00:08:18.668Z,62.78
2023-05-04T00:09:18.661Z,62.50
2023-05-04T00:10:18.670Z,62.29
2023-05-04T00:11:18.647Z,62.40
2023-05-04T00:12:18.599Z,62.50
2023-05-04T00:13:18.575Z,62.60
2023-05-04T00:14:18.596Z,62.29
2023-05-04T00:15:18.610Z,62.50
2023-05-04T00:16:18.614Z,62.71
2023-05-04T00:17:18.548Z,62.92
2023-05-04T00:18:18.524Z,62.81
2023-05-04T00:19:18.517Z,62.94
2023-05-04T00:20:18.510Z,62.63
2023-05-04T00:21:18.468Z,62.63
2023-05-04T00:22:18.468Z,62.84
2023-05-04T00:23:18.462Z,62.84
2023-05-04T00:24:18.475Z,62.94
2023-05-04T00:25:18.428Z,62.94
2023-05-04T00:26:18.409Z,63.15
2023-05-04T00:27:18.409Z,63.15
2023-05-04T00:28:18.385Z,63.25
2023-05-04T00:29:18.419Z,63.49
2023-05-04T00:30:18.354Z,63.59
2023-05-04T00:31:18.364Z,63.59
2023-05-04T00:32:18.331Z,63.49
2023-05-04T00:33:18.337Z,63.79
2023-05-04T00:34:18.333Z,64.11
2023-05-04T00:35:18.301Z,64.11
2023-05-04T00:36:18.307Z,64.11
2023-05-04T00:37:18.283Z,64.24
2023-05-04T00:38:18.270Z,64.14
2023-05-04T00:39:18.264Z,64.45
2023-05-04T00:40:18.238Z,64.55
2023-05-04T00:41:18.220Z,64.76
2023-05-04T00:42:18.207Z,64.55
2023-05-04T00:43:18.192Z,64.45
2023-05-04T00:44:18.184Z,64.76
2023-05-04T00:45:18.217Z,64.76
2023-05-04T00:46:18.152Z,64.86
2023-05-04T00:47:18.290Z,64.76
2023-05-04T00:48:18.177Z,64.86
2023-05-04T00:49:18.116Z,64.89
2023-05-04T00:50:18.131Z,65.09
2023-05-04T00:51:18.109Z,65.30
2023-05-04T00:52:18.087Z,65.51
2023-05-04T00:53:18.084Z,65.30
2023-05-04T00:54:18.068Z,65.41
2023-05-04T00:55:18.074Z,65.20
2023-05-04T00:56:18.047Z,65.41
2023-05-04T00:57:18.025Z,65.41
2023-05-04T00:58:18.008Z,65.41
2023-05-04T00:59:18.013Z,65.41
2023-05-04T01:00:17.975Z,65.33
2023-05-04T01:01:17.979Z,65.54
2023-05-04T01:02:17.976Z,65.44
2023-05-04T01:03:18.025Z,65.64
2023-05-04T01:04:17.935Z,65.54
2023-05-04T01:05:17.936Z,65.33
2023-05-04T01:06:17.909Z,65.54
2023-05-04T01:07:17.931Z,65.54
2023-05-04T01:08:17.898Z,65.44
2023-05-04T01:09:17.892Z,65.64
2023-05-04T01:10:17.884Z,65.64
2023-05-04T01:11:17.868Z,65.54
2023-05-04T01:12:17.878Z,65.54
2023-05-04T01:13:17.836Z,65.64
2023-05-04T01:14:17.810Z,65.75
2023-05-04T01:15:17.798Z,65.78
2023-05-04T01:16:17.778Z,65.88
2023-05-04T01:17:17.770Z,65.99
2023-05-04T01:18:17.766Z,66.09
2023-05-04T01:19:17.749Z,66.09
2023-05-04T01:20:17.726Z,66.19
2023-05-04T01:21:17.709Z,66.19
2023-05-04T01:22:17.691Z,66.19
2023-05-04T01:23:17.682Z,66.39
2023-05-04T01:24:17.697Z,66.39
2023-05-04T01:25:17.670Z,66.32
2023-05-04T01:26:17.638Z,66.53
2023-05-04T01:27:17.653Z,66.42
2023-05-04T01:28:17.629Z,66.42
2023-05-04T01:29:17.643Z,66.42
2023-05-04T01:30:17.616Z,66.53
2023-05-04T01:31:17.591Z,66.74
2023-05-04T01:32:17.570Z,66.63
2023-05-04T01:33:17.556Z,66.84
2023-05-04T01:34:17.555Z,66.74
2023-05-04T01:35:17.525Z,67.05
2023-05-04T01:36:17.523Z,67.15
2023-05-04T01:37:17.503Z,67.25
2023-05-04T01:38:17.522Z,67.15
2023-05-04T01:39:17.505Z,67.36
2023-05-04T01:40:17.479Z,67.36
2023-05-04T01:41:17.462Z,67.49
2023-05-04T01:42:17.449Z,67.60
2023-05-04T01:43:17.420Z,67.70
2023-05-04T01:44:17.439Z,67.70
2023-05-04T01:45:17.430Z,67.70
2023-05-04T01:46:17.436Z,67.60
2023-05-04T01:47:17.378Z,67.80
2023-05-04T01:48:17.371Z,67.80
2023-05-04T01:49:17.366Z,68.01
2023-05-04T01:50:17.365Z,67.91
2023-05-04T01:51:17.332Z,68.01
2023-05-04T01:52:17.311Z,68.22
2023-05-04T01:53:17.301Z,68.22
2023-05-04T01:54:17.330Z,68.22
2023-05-04T01:55:17.264Z,68.32
2023-05-04T01:56:17.255Z,68.12
2023-05-04T01:57:17.245Z,68.01
2023-05-04T01:58:17.261Z,68.01
2023-05-04T01:59:17.246Z,67.94
2023-05-04T02:00:17.248Z,68.04
2023-05-04T02:01:17.217Z,68.46
2023-05-04T02:02:17.189Z,68.15
2023-05-04T02:03:17.223Z,68.04
2023-05-04T02:04:17.172Z,68.04
2023-05-04T02:05:17.180Z,68.04
2023-05-04T02:06:17.160Z,68.15
2023-05-04T02:07:17.125Z,68.15
2023-05-04T02:08:17.124Z,68.25
2023-05-04T02:09:17.106Z,68.15
2023-05-04T02:10:17.095Z,68.25
2023-05-04T02:11:17.093Z,68.35
2023-05-04T02:12:17.061Z,68.35
2023-05-04T02:13:17.280Z,68.46
2023-05-04T02:14:17.103Z,68.35
2023-05-04T02:15:17.046Z,68.25
2023-05-04T02:16:17.098Z,68.25
2023-05-04T02:17:16.987Z,68.46
2023-05-04T02:18:16.988Z,68.46
2023-05-04T02:19:16.988Z,68.59
2023-05-04T02:20:16.949Z,68.49
2023-05-04T02:21:16.945Z,68.49
2023-05-04T02:22:16.928Z,68.59
2023-05-04T02:23:16.919Z,68.59
2023-05-04T02:24:16.912Z,68.49
2023-05-04T02:25:16.939Z,68.59
2023-05-04T02:26:16.929Z,68.59
2023-05-04T02:27:16.862Z,68.49
2023-05-04T02:28:16.892Z,68.49
2023-05-04T02:29:16.862Z,68.38
2023-05-04T02:30:16.832Z,68.49
2023-05-04T02:31:17.018Z,68.80
2023-05-04T02:32:16.808Z,68.59
2023-05-04T02:33:16.816Z,68.59
2023-05-04T02:34:16.794Z,68.59
2023-05-04T02:35:16.800Z,68.59
2023-05-04T02:36:16.757Z,68.59
2023-05-04T02:37:17.524Z,68.59
2023-05-04T02:38:16.742Z,68.73
2023-05-04T02:39:16.730Z,68.83
2023-05-04T02:40:16.742Z,68.73
2023-05-04T02:41:16.683Z,68.73
2023-05-04T02:42:16.681Z,68.93
2023-05-04T02:43:16.667Z,68.73
2023-05-04T02:44:16.664Z,68.73
2023-05-04T02:45:16.645Z,68.73
2023-05-04T02:46:16.706Z,68.73
2023-05-04T02:47:16.604Z,68.83
2023-05-04T02:48:16.615Z,68.73
2023-05-04T02:49:16.593Z,68.83
2023-05-04T02:50:16.583Z,68.83
2023-05-04T02:51:16.558Z,68.93
2023-05-04T02:52:16.589Z,68.83
2023-05-04T02:53:16.528Z,68.73
2023-05-04T02:54:16.555Z,68.73
2023-05-04T02:55:16.496Z,68.93
2023-05-04T02:56:16.492Z,68.93
2023-05-04T02:57:16.474Z,69.07
2023-05-04T02:58:16.487Z,68.93
2023-05-04T02:59:16.457Z,69.07
2023-05-04T03:00:16.473Z,69.07
2023-05-04T03:01:16.457Z,69.17
2023-05-04T03:02:16.436Z,69.07
2023-05-04T03:03:16.422Z,69.17
2023-05-04T03:04:16.422Z,69.07
2023-05-04T03:05:16.407Z,69.27
2023-05-04T03:06:16.366Z,69.17
2023-05-04T03:07:16.363Z,69.17
2023-05-04T03:08:16.368Z,69.27
2023-05-04T03:09:16.323Z,69.17
2023-05-04T03:10:16.348Z,69.17
2023-05-04T03:11:16.313Z,69.17
2023-05-04T03:12:16.301Z,69.27
2023-05-04T03:13:16.354Z,69.27
2023-05-04T03:14:16.275Z,69.27
2023-05-04T03:15:16.266Z,69.27
2023-05-04T03:16:16.304Z,69.38
2023-05-04T03:17:16.244Z,69.38
2023-05-04T03:18:16.251Z,69.38
2023-05-04T03:19:16.201Z,69.48
2023-05-04T03:20:16.214Z,69.48
2023-05-04T03:21:16.172Z,69.48
2023-05-04T03:22:16.166Z,69.62
2023-05-04T03:23:16.252Z,69.62
2023-05-04T03:24:16.129Z,69.73
2023-05-04T03:25:16.135Z,69.73
2023-05-04T03:26:16.106Z,69.73
2023-05-04T03:27:16.102Z,69.73
2023-05-04T03:28:16.089Z,69.73
2023-05-04T03:29:16.069Z,69.83
2023-05-04T03:30:16.069Z,69.83
2023-05-04T03:31:16.060Z,69.93
2023-05-04T03:32:16.117Z,69.93
2023-05-04T03:33:16.047Z,70.04
2023-05-04T03:34:16.026Z,69.93
2023-05-04T03:35:19.082Z,70.04
2023-05-04T03:36:17.012Z,69.93
2023-05-04T03:37:15.989Z,69.93
2023-05-04T03:38:15.957Z,69.93
2023-05-04T03:39:15.937Z,70.14
2023-05-04T03:40:15.962Z,70.04
2023-05-04T03:41:15.921Z,70.14
2023-05-04T03:42:15.958Z,70.04
2023-05-04T03:43:15.900Z,70.04
2023-05-04T03:44:15.886Z,70.04
2023-05-04T03:45:15.893Z,70.04
2023-05-04T03:46:15.901Z,70.04
2023-05-04T03:47:15.846Z,69.93
2023-05-04T03:48:15.834Z,70.04
2023-05-04T03:49:15.825Z,70.25
2023-05-04T03:50:15.833Z,70.25
2023-05-04T03:51:15.787Z,70.35
2023-05-04T03:52:15.795Z,70.38
2023-05-04T03:53:15.771Z,70.48
2023-05-04T03:54:15.769Z,70.38
2023-05-04T03:55:15.756Z,70.38
2023-05-04T03:56:15.738Z,70.38
2023-05-04T03:57:15.722Z,70.38
2023-05-04T03:58:15.702Z,70.38
2023-05-04T03:59:15.698Z,70.38
2023-05-04T04:00:15.720Z,70.38
2023-05-04T04:01:15.674Z,70.59
2023-05-04T04:02:15.694Z,70.59
2023-05-04T04:03:15.784Z,70.59
2023-05-04T04:04:15.678Z,70.48
2023-05-04T04:05:15.648Z,70.69
2023-05-04T04:06:15.608Z,70.69
2023-05-04T04:07:15.606Z,70.69
2023-05-04T04:08:15.595Z,70.69
2023-05-04T04:09:15.562Z,70.69
2023-05-04T04:10:15.602Z,70.79
2023-05-04T04:11:15.543Z,70.90
2023-05-04T04:12:15.535Z,70.90
2023-05-04T04:13:15.633Z,70.90
2023-05-04T04:14:15.505Z,71.00
2023-05-04T04:15:15.535Z,70.90
2023-05-04T04:16:15.600Z,71.00
2023-05-04T04:17:15.481Z,70.90
2023-05-04T04:18:15.474Z,71.00
2023-05-04T04:19:15.438Z,71.00
2023-05-04T04:20:15.458Z,71.00
2023-05-04T04:21:15.413Z,71.11
2023-05-04T04:22:15.412Z,71.11
2023-05-04T04:23:15.386Z,71.21
2023-05-04T04:24:15.408Z,71.21
2023-05-04T04:25:15.375Z,71.18
2023-05-04T04:26:15.364Z,71.28
2023-05-04T04:27:15.341Z,71.28
2023-05-04T04:28:15.323Z,71.31
2023-05-04T04:29:15.318Z,71.39
2023-05-04T04:30:15.326Z,71.39
2023-05-04T04:31:15.348Z,71.49
2023-05-04T04:32:15.269Z,71.59
2023-05-04T04:33:15.281Z,71.70
2023-05-04T04:34:15.265Z,71.80
2023-05-04T04:35:15.263Z,71.91
2023-05-04T04:36:15.241Z,71.80
2023-05-04T04:37:15.195Z,71.91
2023-05-04T04:38:15.205Z,71.91
2023-05-04T04:39:15.191Z,71.80
2023-05-04T04:40:15.204Z,72.01
2023-05-04T04:41:15.173Z,72.32
2023-05-04T04:42:15.164Z,72.32
2023-05-04T04:43:15.161Z,72.11
2023-05-04T04:44:15.132Z,72.11
2023-05-04T04:45:15.132Z,72.11
2023-05-04T04:46:15.112Z,72.11
2023-05-04T04:47:15.081Z,72.01
2023-05-04T04:48:15.074Z,72.01
2023-05-04T04:49:15.057Z,72.22
2023-05-04T04:50:15.080Z,72.32
2023-05-04T04:51:15.032Z,72.53
2023-05-04T04:52:15.680Z,72.63
2023-05-04T04:53:15.016Z,72.63
2023-05-04T04:54:15.014Z,72.53
2023-05-04T04:55:14.999Z,72.49
2023-05-04T04:56:14.975Z,72.49
2023-05-04T04:57:14.957Z,72.60
2023-05-04T04:58:14.952Z,72.49
2023-05-04T04:59:14.948Z,72.60
2023-05-04T05:00:14.951Z,72.70
2023-05-04T05:01:14.952Z,72.70
2023-05-04T05:02:14.920Z,72.80
2023-05-04T05:03:14.931Z,72.77
2023-05-04T05:04:14.898Z,72.77
2023-05-04T05:05:14.929Z,72.88
2023-05-04T05:06:14.843Z,73.08
2023-05-04T05:07:14.839Z,73.05
2023-05-04T05:08:14.818Z,73.25
2023-05-04T05:09:14.831Z,73.36
2023-05-04T05:10:14.825Z,73.11
2023-05-04T05:11:14.806Z,73.22
2023-05-04T05:12:14.790Z,73.11
2023-05-04T05:13:15.008Z,72.91
2023-05-04T05:14:14.746Z,72.77
2023-05-04T05:15:14.737Z,72.77
2023-05-04T05:16:14.734Z,72.77
2023-05-04T05:17:14.704Z,72.85
2023-05-04T05:18:14.695Z,72.85
2023-05-04T05:19:14.684Z,72.94
2023-05-04T05:20:14.693Z,72.85
2023-05-04T05:21:14.667Z,72.71
2023-05-04T05:22:14.656Z,72.71
2023-05-04T05:23:14.623Z,72.71
2023-05-04T05:24:14.601Z,72.71
2023-05-04T05:25:14.631Z,72.57
2023-05-04T05:26:14.594Z,72.67
2023-05-04T05:27:14.575Z,72.57
2023-05-04T05:28:14.556Z,72.47
2023-05-04T05:29:14.539Z,72.33
2023-05-04T05:30:14.559Z,72.22
2023-05-04T05:31:14.521Z,72.33
2023-05-04T05:32:14.512Z,72.33
2023-05-04T05:33:14.572Z,72.19
2023-05-04T05:34:14.481Z,72.19
2023-05-04T05:35:14.489Z,72.19
2023-05-04T05:36:14.453Z,72.19
2023-05-04T05:37:14.435Z,72.09
2023-05-04T05:38:14.420Z,72.06
2023-05-04T05:39:14.414Z,71.95
2023-05-04T05:40:14.422Z,71.95
2023-05-04T05:41:14.389Z,71.95
2023-05-04T05:42:14.424Z,71.81
2023-05-04T05:43:14.367Z,71.81
2023-05-04T05:44:14.360Z,71.92
2023-05-04T05:45:14.362Z,72.02
2023-05-04T05:46:14.351Z,71.89
2023-05-04T05:47:14.313Z,71.89
2023-05-04T05:48:14.290Z,71.68
2023-05-04T05:49:14.281Z,71.68
2023-05-04T05:50:14.293Z,71.55
2023-05-04T05:51:14.278Z,71.44
2023-05-04T05:52:14.239Z,71.44
2023-05-04T05:53:14.233Z,71.34
2023-05-04T05:54:14.242Z,71.41
2023-05-04T05:55:14.224Z,71.30
2023-05-04T05:56:14.186Z,71.20
2023-05-04T05:57:14.179Z,71.06
2023-05-04T05:58:14.169Z,70.86
2023-05-04T05:59:14.152Z,70.96
2023-05-04T06:00:14.178Z,70.83
2023-05-04T06:01:14.137Z,70.83
2023-05-04T06:02:14.149Z,70.90
2023-05-04T06:03:14.198Z,70.69
2023-05-04T06:04:14.386Z,70.59
2023-05-04T06:05:14.099Z,70.35
2023-05-04T06:06:14.063Z,70.25
2023-05-04T06:07:14.064Z,70.01
2023-05-04T06:08:14.027Z,69.90
2023-05-04T06:09:14.034Z,69.87
2023-05-04T06:10:14.009Z,69.77
2023-05-04T06:11:14.015Z,69.77
2023-05-04T06:12:13.985Z,69.53
2023-05-04T06:13:14.076Z,69.53
2023-05-04T06:14:13.974Z,69.29
2023-05-04T06:15:13.978Z,69.16
2023-05-04T06:16:14.026Z,69.06
2023-05-04T06:17:14.079Z,68.82
2023-05-04T06:18:14.020Z,68.62
2023-05-04T06:19:14.187Z,68.48
2023-05-04T06:20:13.971Z,68.24
2023-05-04T06:21:13.923Z,67.94
2023-05-04T06:22:13.912Z,67.60
2023-05-04T06:23:13.935Z,67.40
2023-05-04T06:24:13.952Z,67.19
2023-05-04T06:25:13.985Z,67.05
2023-05-04T06:26:13.866Z,66.85
2023-05-04T06:27:13.800Z,66.61
2023-05-04T06:28:13.765Z,66.41
2023-05-04T06:29:13.838Z,66.17
2023-05-04T06:30:14.020Z,65.94
2023-05-04T06:31:13.814Z,65.70
2023-05-04T06:32:13.918Z,65.50
2023-05-04T06:33:13.727Z,65.26
2023-05-04T06:34:13.709Z,65.03
2023-05-04T06:35:13.705Z,64.69
2023-05-04T06:36:13.704Z,64.39
2023-05-04T06:37:15.532Z,64.15
2023-05-04T06:38:13.637Z,63.82
2023-05-04T06:39:13.683Z,63.28
2023-05-04T06:40:13.858Z,62.97
2023-05-04T06:41:13.701Z,62.63
2023-05-04T06:42:13.588Z,62.30
2023-05-04T06:43:13.580Z,62.17
2023-05-04T06:44:13.618Z,61.66
2023-05-04T06:45:13.564Z,61.22
2023-05-04T06:46:13.606Z,60.89
2023-05-04T06:47:13.570Z,60.56
2023-05-04T06:48:13.548Z,60.36
2023-05-04T06:49:13.501Z,60.02
2023-05-04T06:50:13.593Z,59.48
2023-05-04T06:51:13.594Z,58.98
2023-05-04T06:52:13.540Z,58.75
2023-05-04T06:53:13.490Z,58.65
2023-05-04T06:54:13.421Z,58.52
2023-05-04T06:55:13.535Z,58.18
2023-05-04T06:56:13.437Z,57.98
2023-05-04T06:57:13.630Z,57.75
2023-05-04T06:58:13.458Z,57.75
2023-05-04T06:59:13.388Z,57.53
2023-05-04T07:00:13.355Z,57.32
2023-05-04T07:01:14.537Z,57.22
2023-05-04T07:02:13.401Z,57.12
2023-05-04T07:03:13.373Z,57.12
2023-05-04T07:04:13.313Z,56.99
2023-05-04T07:05:13.289Z,56.76
2023-05-04T07:06:13.290Z,56.66
2023-05-04T07:07:13.280Z,56.53
2023-05-04T07:08:13.325Z,56.10
2023-05-04T07:09:13.277Z,55.57
2023-05-04T07:10:13.284Z,55.16
2023-05-04T07:11:13.234Z,54.63
2023-05-04T07:12:13.211Z,54.33
2023-05-04T07:13:13.284Z,54.00
2023-05-04T07:14:13.172Z,54.00
2023-05-04T07:15:13.169Z,53.98
2023-05-04T07:16:13.215Z,54.05
2023-05-04T07:17:13.173Z,53.96
2023-05-04T07:18:13.298Z,53.83
2023-05-04T07:19:13.118Z,53.60
2023-05-04T07:20:13.095Z,53.40
2023-05-04T07:21:26.845Z,53.07
2023-05-04T07:22:14.249Z,52.64
2023-05-04T07:23:13.059Z,52.11
2023-05-04T07:24:13.033Z,51.68
2023-05-04T07:25:13.035Z,51.59
2023-05-04T07:26:13.015Z,51.36
2023-05-04T07:27:13.011Z,51.06
2023-05-04T07:28:12.991Z,50.53
2023-05-04T07:29:12.983Z,50.63
2023-05-04T07:30:12.986Z,50.53
2023-05-04T07:31:13.064Z,50.41
2023-05-04T07:32:13.052Z,49.88
2023-05-04T07:33:13.011Z,49.48
2023-05-04T07:34:12.901Z,49.38
2023-05-04T07:35:12.979Z,49.46
2023-05-04T07:36:12.877Z,49.05
2023-05-04T07:37:12.875Z,48.93
2023-05-04T07:38:12.850Z,49.04
2023-05-04T07:39:12.871Z,49.04
2023-05-04T07:40:12.835Z,48.61
2023-05-04T07:41:12.903Z,48.81
2023-05-04T07:42:12.801Z,48.91
2023-05-04T07:43:12.788Z,47.81
2023-05-04T07:44:12.816Z,47.71
2023-05-04T07:45:12.773Z,47.99
2023-05-04T07:46:12.826Z,48.19
2023-05-04T07:47:12.797Z,48.07
2023-05-04T07:48:12.743Z,47.94
2023-05-04T07:49:12.790Z,47.74
2023-05-04T07:50:12.803Z,47.42
2023-05-04T07:51:12.681Z,47.30
2023-05-04T07:52:12.684Z,46.59
2023-05-04T07:53:12.690Z,45.69
2023-05-04T07:54:12.676Z,45.20
2023-05-04T07:55:12.647Z,45.57
2023-05-04T07:56:12.627Z,43.67
2023-05-04T07:57:12.634Z,44.65
2023-05-04T07:58:12.596Z,44.75
2023-05-04T07:59:12.592Z,45.03
2023-05-04T08:00:13.256Z,44.93
2023-05-04T08:01:12.594Z,45.01
2023-05-04T08:02:12.618Z,44.91
2023-05-04T08:03:12.543Z,44.59
2023-05-04T08:04:12.544Z,44.19
2023-05-04T08:05:12.496Z,44.49
2023-05-04T08:06:12.493Z,44.38
2023-05-04T08:07:12.498Z,44.38
2023-05-04T08:08:12.474Z,44.27
2023-05-04T08:09:12.503Z,44.17
2023-05-04T08:10:12.436Z,44.37
2023-05-04T08:11:20.097Z,43.95
2023-05-04T08:12:13.435Z,43.25
2023-05-04T08:13:12.508Z,43.45
2023-05-04T08:14:12.427Z,43.35
2023-05-04T08:15:12.394Z,43.15
2023-05-04T08:16:12.367Z,42.93
2023-05-04T08:17:12.364Z,42.53
2023-05-04T08:18:12.336Z,42.83
2023-05-04T08:19:12.343Z,42.41
2023-05-04T08:20:12.360Z,42.21
2023-05-04T08:21:12.312Z,42.31
2023-05-04T08:22:12.313Z,42.29
2023-05-04T08:23:12.265Z,42.39
2023-05-04T08:24:12.441Z,42.49
2023-05-04T08:25:12.258Z,42.57
2023-05-04T08:26:12.249Z,41.97
2023-05-04T08:27:12.237Z,41.97
2023-05-04T08:28:12.209Z,41.75
2023-05-04T08:29:12.193Z,41.55
2023-05-04T08:30:12.160Z,41.53
2023-05-04T08:31:12.190Z,41.34
2023-05-04T08:32:12.183Z,41.22
2023-05-04T08:33:12.183Z,41.02
2023-05-04T08:34:12.135Z,40.20
2023-05-04T08:35:12.149Z,40.41
2023-05-04T08:36:12.130Z,40.41
2023-05-04T08:37:12.123Z,38.00
2023-05-04T08:38:12.084Z,39.09
2023-05-04T08:39:12.108Z,39.47
2023-05-04T08:40:12.048Z,39.37
2023-05-04T08:41:12.075Z,39.55
2023-05-04T08:42:12.028Z,39.45
2023-05-04T08:43:12.005Z,39.23
2023-05-04T08:44:12.003Z,38.82
2023-05-04T08:45:12.022Z,38.53
2023-05-04T08:46:12.045Z,38.60
2023-05-04T08:47:11.979Z,38.60
2023-05-04T08:48:11.966Z,38.29
2023-05-04T08:49:11.966Z,37.38
2023-05-04T08:50:11.981Z,37.38
2023-05-04T08:51:12.025Z,37.38
2023-05-04T08:52:11.882Z,35.78
2023-05-04T08:53:11.978Z,35.28
2023-05-04T08:54:11.879Z,35.09
2023-05-04T08:55:11.884Z,34.99
2023-05-04T08:56:11.828Z,34.00
2023-05-04T08:57:11.843Z,32.71
2023-05-04T08:58:11.812Z,32.92
2023-05-04T08:59:11.822Z,32.03
2023-05-04T09:00:11.799Z,33.80
2023-05-04T09:01:11.863Z,33.31
2023-05-04T09:02:11.863Z,33.41
2023-05-04T09:03:11.823Z,33.11
2023-05-04T09:04:11.771Z,33.21
2023-05-04T09:05:11.743Z,32.50
2023-05-04T09:06:11.698Z,32.90
2023-05-04T09:07:11.689Z,33.39
2023-05-04T09:08:11.695Z,33.39
2023-05-04T09:09:11.699Z,32.98
2023-05-04T09:10:11.661Z,32.59
2023-05-04T09:11:11.641Z,32.68
2023-05-04T09:12:11.639Z,32.49
2023-05-04T09:13:11.719Z,31.59
2023-05-04T09:14:11.655Z,31.88
2023-05-04T09:15:11.677Z,31.78
2023-05-04T09:16:13.382Z,31.88
2023-05-04T09:17:11.645Z,31.37
2023-05-04T09:18:11.707Z,30.98
2023-05-04T09:19:11.688Z,30.38
2023-05-04T09:20:11.558Z,29.99
2023-05-04T09:21:11.504Z,28.51
2023-05-04T09:22:11.546Z,30.10
2023-05-04T09:23:11.590Z,30.99
2023-05-04T09:24:11.525Z,30.60
2023-05-04T09:25:11.493Z,30.78
2023-05-04T09:26:11.521Z,30.58
2023-05-04T09:27:11.438Z,29.97
2023-05-04T09:28:11.418Z,30.27
2023-05-04T09:29:11.480Z,27.61
2023-05-04T09:30:11.700Z,29.88
2023-05-04T09:31:11.541Z,29.68
2023-05-04T09:32:11.484Z,29.97
2023-05-04T09:33:11.379Z,30.07
2023-05-04T09:34:11.335Z,29.86
2023-05-04T09:35:14.195Z,29.47
2023-05-04T09:36:12.352Z,29.17
2023-05-04T09:37:11.310Z,29.27
2023-05-04T09:38:11.282Z,29.57
2023-05-04T09:39:11.452Z,29.65
2023-05-04T09:40:11.279Z,29.35
2023-05-04T09:41:11.460Z,29.16
2023-05-04T09:42:11.239Z,30.15
2023-05-04T09:43:11.230Z,29.93
2023-05-04T09:44:11.216Z,29.53
2023-05-04T09:45:11.220Z,29.63
2023-05-04T09:46:11.224Z,29.63
2023-05-04T09:47:11.169Z,29.23
2023-05-04T09:48:11.183Z,29.23
2023-05-04T09:49:11.155Z,29.33
2023-05-04T09:50:11.155Z,29.33
2023-05-04T09:51:11.185Z,29.82
2023-05-04T09:52:11.111Z,29.92
2023-05-04T09:53:11.100Z,30.02
2023-05-04T09:54:11.094Z,29.61
2023-05-04T09:55:11.100Z,29.41
2023-05-04T09:56:11.197Z,29.21
2023-05-04T09:57:11.048Z,28.81
2023-05-04T09:58:11.033Z,28.81
2023-05-04T09:59:11.029Z,28.81
2023-05-04T10:00:11.348Z,28.70
2023-05-04T10:01:11.113Z,28.70
2023-05-04T10:02:21.809Z,28.22
2023-05-04T10:03:12.017Z,28.41
2023-05-04T10:04:10.955Z,28.22
2023-05-04T10:05:10.986Z,27.82
2023-05-04T10:06:10.965Z,28.22
2023-05-04T10:07:10.901Z,28.31
2023-05-04T10:08:10.907Z,27.43
2023-05-04T10:09:10.932Z,27.05
2023-05-04T10:10:10.891Z,27.74
2023-05-04T10:11:10.856Z,28.72
2023-05-04T10:12:10.840Z,28.92
2023-05-04T10:13:10.933Z,29.02
2023-05-04T10:14:10.849Z,28.70
2023-05-04T10:15:10.814Z,28.81
2023-05-04T10:16:10.872Z,27.43
2023-05-04T10:17:12.505Z,27.94
2023-05-04T10:18:10.799Z,28.23
2023-05-04T10:19:10.774Z,28.82
2023-05-04T10:20:10.778Z,29.11
2023-05-04T10:21:10.725Z,29.30
2023-05-04T10:22:10.728Z,29.49
2023-05-04T10:23:10.717Z,29.49
2023-05-04T10:24:10.750Z,29.79
2023-05-04T10:25:10.688Z,29.79
2023-05-04T10:26:10.668Z,29.59
2023-05-04T10:27:10.666Z,28.81
2023-05-04T10:28:10.738Z,28.61
2023-05-04T10:29:10.656Z,28.91
2023-05-04T10:30:10.608Z,29.20
2023-05-04T10:31:10.623Z,29.59
2023-05-04T10:32:10.594Z,29.89
2023-05-04T10:33:10.627Z,29.99
2023-05-04T10:34:10.569Z,29.39
2023-05-04T10:35:10.551Z,29.58
2023-05-04T10:36:10.548Z,29.77
2023-05-04T10:37:10.550Z,30.17
2023-05-04T10:38:10.543Z,30.17
2023-05-04T10:39:10.471Z,29.68
2023-05-04T10:40:10.503Z,28.89
2023-05-04T10:41:10.447Z,28.40
2023-05-04T10:42:10.458Z,28.99
2023-05-04T10:43:10.442Z,28.40
2023-05-04T10:44:10.422Z,28.69
2023-05-04T10:45:10.401Z,28.89
2023-05-04T10:46:10.481Z,28.39
2023-05-04T10:47:10.392Z,28.19
2023-05-04T10:48:10.406Z,27.70
2023-05-04T10:49:10.358Z,27.80
2023-05-04T10:50:10.386Z,28.09
2023-05-04T10:51:10.404Z,27.89
2023-05-04T10:52:10.366Z,28.29
2023-05-04T10:53:10.291Z,28.88
2023-05-04T10:54:10.337Z,29.47
2023-05-04T10:55:10.268Z,29.57
2023-05-04T10:56:10.327Z,28.78
2023-05-04T10:57:10.270Z,29.07
2023-05-04T10:58:10.231Z,29.68
2023-05-04T10:59:10.268Z,29.87
2023-05-04T11:00:10.247Z,29.97
2023-05-04T11:01:10.251Z,29.87
2023-05-04T11:02:10.204Z,29.97
2023-05-04T11:03:10.282Z,28.99
2023-05-04T11:04:10.169Z,29.19
2023-05-04T11:05:10.153Z,29.59
2023-05-04T11:06:10.135Z,29.20
2023-05-04T11:07:10.142Z,30.58
2023-05-04T11:08:10.109Z,30.77
2023-05-04T11:09:10.105Z,30.38
2023-05-04T11:10:10.099Z,30.97
2023-05-04T11:11:10.066Z,31.07
2023-05-04T11:12:10.056Z,31.16
2023-05-04T11:13:10.046Z,31.16
2023-05-04T11:14:10.047Z,30.47
2023-05-04T11:15:10.035Z,30.08
2023-05-04T11:16:10.034Z,30.19
2023-05-04T11:17:26.632Z,30.59
2023-05-04T11:18:10.980Z,30.10
2023-05-04T11:19:09.986Z,30.49
2023-05-04T11:20:09.966Z,30.59
2023-05-04T11:21:09.941Z,29.03
2023-05-04T11:22:09.941Z,29.92
2023-05-04T11:23:09.909Z,30.22
2023-05-04T11:24:09.908Z,30.52
2023-05-04T11:25:09.894Z,31.01
2023-05-04T11:26:09.897Z,29.83
2023-05-04T11:27:09.890Z,30.43
2023-05-04T11:28:09.917Z,30.62
2023-05-04T11:29:09.877Z,31.01
2023-05-04T11:30:09.860Z,31.51
2023-05-04T11:31:09.866Z,31.60
2023-05-04T11:32:09.794Z,31.80
2023-05-04T11:33:09.867Z,32.00
2023-05-04T11:34:09.801Z,32.20
2023-05-04T11:35:09.759Z,32.39
2023-05-04T11:36:09.802Z,32.49
2023-05-04T11:37:09.754Z,31.80
2023-05-04T11:38:09.719Z,32.00
2023-05-04T11:39:09.701Z,31.60
2023-05-04T11:40:09.738Z,31.60
2023-05-04T11:41:09.666Z,31.11
2023-05-04T11:42:09.675Z,31.51
2023-05-04T11:43:09.658Z,31.80
2023-05-04T11:44:09.658Z,32.29
2023-05-04T11:45:09.662Z,30.80
2023-05-04T11:46:09.655Z,29.44
2023-05-04T11:47:09.645Z,28.65
2023-05-04T11:48:09.644Z,28.75
2023-05-04T11:49:09.591Z,28.96
2023-05-04T11:50:09.587Z,29.65
2023-05-04T11:51:09.577Z,29.17
2023-05-04T11:52:09.617Z,28.68
2023-05-04T11:53:09.720Z,29.37
2023-05-04T11:54:09.516Z,29.47
2023-05-04T11:55:09.613Z,28.97
2023-05-04T11:56:09.697Z,29.09
2023-05-04T11:57:09.640Z,29.28
2023-05-04T11:58:09.615Z,29.38
2023-05-04T11:59:09.573Z,29.39
2023-05-04T12:00:09.571Z,29.89
2023-05-04T12:01:09.447Z,29.89
2023-05-04T12:02:09.425Z,30.19
2023-05-04T12:03:09.506Z,30.20
2023-05-04T12:04:09.530Z,30.60
2023-05-04T12:05:09.602Z,30.60
2023-05-04T12:06:09.387Z,30.50
2023-05-04T12:07:09.354Z,30.10
2023-05-04T12:08:09.326Z,30.20
2023-05-04T12:09:09.363Z,30.00
2023-05-04T12:10:09.315Z,29.32
2023-05-04T12:11:09.432Z,28.92
2023-05-04T12:12:09.297Z,29.11
2023-05-04T12:13:09.314Z,29.51
2023-05-04T12:14:09.260Z,29.11
2023-05-04T12:15:09.357Z,29.32
2023-05-04T12:16:09.271Z,29.51
2023-05-04T12:17:09.214Z,29.71
2023-05-04T12:18:09.254Z,29.91
2023-05-04T12:19:09.180Z,29.61
2023-05-04T12:20:09.186Z,29.51
2023-05-04T12:21:09.170Z,29.32
2023-05-04T12:22:09.151Z,29.41
2023-05-04T12:23:09.142Z,28.82
2023-05-04T12:24:09.190Z,29.32
2023-05-04T12:25:09.415Z,29.61
2023-05-04T12:26:09.090Z,29.32
2023-05-04T12:27:09.074Z,29.11
2023-05-04T12:28:09.069Z,29.32
2023-05-04T12:29:09.063Z,29.03
2023-05-04T12:30:09.061Z,27.94
2023-05-04T12:31:09.169Z,28.64
2023-05-04T12:32:09.165Z,28.53
2023-05-04T12:33:09.061Z,29.03
2023-05-04T12:34:09.000Z,29.13
2023-05-04T12:35:09.216Z,29.23
2023-05-04T12:36:08.978Z,29.33
2023-05-04T12:37:08.942Z,29.33
2023-05-04T12:38:09.176Z,29.62
2023-05-04T12:39:08.974Z,29.72
2023-05-04T12:40:20.954Z,29.72
2023-05-04T12:41:09.962Z,29.52
2023-05-04T12:42:08.885Z,29.13
2023-05-04T12:43:08.886Z,29.52
2023-05-04T12:44:08.876Z,29.62
2023-05-04T12:45:08.897Z,29.43
2023-05-04T12:46:08.944Z,29.92
2023-05-04T12:47:08.870Z,29.92
2023-05-04T12:48:08.890Z,28.34
2023-05-04T12:49:08.799Z,29.83
2023-05-04T12:50:08.785Z,30.23
2023-05-04T12:51:08.814Z,30.52
2023-05-04T12:52:08.799Z,30.41